Time;durP1;ratioP1;P1;durP2;ratioP2;P2;SDS_P1;SDS_P2;PMS_P1;PMS_P2;Temp;Humidity;BMP_temperature;BMP_pressure;BME280_temperature;BME280_humidity;BME280_pressure;Samples;Min_cycle;Max_cycle;Signal;HPM_P1;HPM_P2
2023/06/23 00:02:46;;;;;;;3.95;2.65;;;22.30;99.90;;;;;;10179798;28;20024;-65
2023/06/23 00:07:38;;;;;;;3.80;2.50;;;22.30;99.90;;;;;;10182669;28;20265;-66
2023/06/23 00:12:28;;;;;;;4.68;2.70;;;22.20;99.90;;;;;;10180273;28;20031;-66
2023/06/23 00:17:20;;;;;;;7.07;3.65;;;22.10;99.90;;;;;;10176138;28;20044;-66
2023/06/23 00:22:10;;;;;;;5.13;3.40;;;22.30;99.90;;;;;;10200840;28;20031;-66
2023/06/23 00:27:01;;;;;;;4.80;2.65;;;22.50;99.90;;;;;;10173910;28;20064;-66
2023/06/23 00:31:52;;;;;;;4.97;2.90;;;22.50;99.90;;;;;;10135379;28;20028;-65
2023/06/23 00:36:42;;;;;;;5.63;3.38;;;22.50;99.90;;;;;;10123540;28;20119;-65
2023/06/23 00:41:34;;;;;;;4.15;2.72;;;22.40;99.90;;;;;;10113919;28;20323;-66
2023/06/23 00:46:25;;;;;;;5.53;2.97;;;22.10;99.90;;;;;;10103451;28;20455;-66
2023/06/23 00:51:16;;;;;;;4.13;2.92;;;22.30;99.90;;;;;;10118096;28;20036;-65
2023/06/23 00:56:07;;;;;;;7.88;4.00;;;22.40;99.90;;;;;;10121851;28;20041;-66
2023/06/23 01:00:58;;;;;;;5.00;3.83;;;22.40;99.90;;;;;;10127797;28;20031;-66
2023/06/23 01:05:51;;;;;;;5.07;3.53;;;22.20;99.90;;;;;;10133831;28;20115;-66
2023/06/23 01:10:51;;;;;;;4.78;3.67;;;22.10;99.90;;;;;;10137776;28;20025;-65
2023/06/23 01:15:52;;;;;;;6.60;4.43;;;22.10;99.90;;;;;;10114130;28;20036;-66
2023/06/23 01:20:46;;;;;;;6.03;4.25;;;22.10;99.90;;;;;;10136481;28;20021;-65
2023/06/23 01:26:10;;;;;;;6.60;4.35;;;22.10;99.90;;;;;;10136598;28;20048;-67
2023/06/23 01:31:02;;;;;;;7.15;4.75;;;22.10;99.90;;;;;;10126906;28;20563;-65
2023/06/23 01:36:07;;;;;;;6.95;5.22;;;22.00;99.90;;;;;;10122304;28;20040;-66
2023/06/23 01:41:00;;;;;;;7.68;5.28;;;22.00;99.90;;;;;;10129727;28;20443;-65
2023/06/23 01:45:55;;;;;;;9.88;6.03;;;22.00;99.90;;;;;;10127303;28;20498;-65
2023/06/23 01:50:47;;;;;;;11.70;6.97;;;22.10;99.90;;;;;;10130589;28;20192;-65
2023/06/23 01:55:39;;;;;;;10.00;6.65;;;22.00;99.90;;;;;;10114696;28;20267;-66
2023/06/23 02:00:31;;;;;;;10.50;7.65;;;21.90;99.90;;;;;;10133216;28;20030;-66
2023/06/23 02:05:24;;;;;;;10.82;7.45;;;22.00;99.90;;;;;;10139690;28;20037;-64
2023/06/23 02:10:19;;;;;;;12.13;7.63;;;22.00;99.90;;;;;;10142367;28;20027;-66
2023/06/23 02:15:12;;;;;;;11.32;8.27;;;22.00;99.90;;;;;;10142866;28;20136;-66
2023/06/23 02:20:13;;;;;;;10.23;7.88;;;22.00;99.90;;;;;;10134170;28;20033;-66
2023/06/23 02:25:05;;;;;;;15.57;8.73;;;22.10;99.90;;;;;;10133699;28;20494;-66
2023/06/23 02:29:58;;;;;;;17.23;10.30;;;22.00;99.90;;;;;;10157526;28;20132;-64
2023/06/23 02:34:48;;;;;;;15.63;10.35;;;21.90;99.90;;;;;;10174600;28;20094;-67
2023/06/23 02:39:43;;;;;;;15.95;10.07;;;21.80;99.90;;;;;;10185641;28;20459;-67
2023/06/23 02:44:56;;;;;;;18.37;10.93;;;21.80;99.90;;;;;;10182831;28;20031;-66
2023/06/23 02:49:51;;;;;;;18.02;13.02;;;21.80;99.90;;;;;;10171393;28;20354;-66
2023/06/23 02:54:48;;;;;;;15.77;9.95;;;21.70;99.90;;;;;;10176558;28;20508;-67
2023/06/23 02:59:41;;;;;;;17.35;12.27;;;21.80;99.90;;;;;;10181494;28;20036;-65
2023/06/23 03:04:34;;;;;;;19.10;12.70;;;21.80;99.90;;;;;;10168014;28;20039;-67
2023/06/23 03:09:26;;;;;;;20.30;13.48;;;21.80;99.90;;;;;;10175806;28;20073;-67
2023/06/23 03:14:23;;;;;;;19.30;12.05;;;21.70;99.90;;;;;;10163000;28;20052;-67
2023/06/23 03:19:20;;;;;;;21.85;12.65;;;21.80;99.90;;;;;;10166263;28;20389;-66
2023/06/23 03:24:13;;;;;;;22.48;13.88;;;21.80;99.90;;;;;;10172935;28;20020;-66
2023/06/23 03:29:09;;;;;;;20.33;14.65;;;21.70;99.90;;;;;;10183827;28;20062;-66
2023/06/23 03:34:01;;;;;;;20.05;12.30;;;21.60;99.90;;;;;;10170852;28;20024;-66
2023/06/23 03:39:04;;;;;;;19.38;12.25;;;21.80;99.90;;;;;;10179811;28;20051;-66
2023/06/23 03:44:04;;;;;;;17.00;10.88;;;21.80;99.90;;;;;;10182821;28;20032;-68
2023/06/23 03:48:58;;;;;;;19.08;12.20;;;21.80;99.90;;;;;;10179367;28;20035;-66
2023/06/23 03:53:50;;;;;;;15.50;10.15;;;22.00;99.90;;;;;;10187074;28;20119;-65
2023/06/23 03:58:43;;;;;;;16.20;11.00;;;22.10;99.90;;;;;;10175335;28;20028;-66
2023/06/23 04:03:37;;;;;;;17.35;11.38;;;22.20;99.90;;;;;;10165146;28;20044;-66
2023/06/23 04:08:30;;;;;;;18.52;10.60;;;22.10;99.90;;;;;;10163338;28;20024;-67
2023/06/23 04:13:22;;;;;;;17.05;11.75;;;22.00;99.90;;;;;;10174827;28;20186;-65
2023/06/23 04:18:14;;;;;;;17.17;10.63;;;22.00;99.90;;;;;;10180594;28;20050;-65
2023/06/23 04:23:06;;;;;;;17.23;10.00;;;22.10;99.90;;;;;;10185302;28;20051;-66
2023/06/23 04:28:00;;;;;;;16.50;10.95;;;22.10;99.90;;;;;;10166977;28;20048;-68
2023/06/23 04:32:51;;;;;;;20.08;12.38;;;22.10;99.90;;;;;;10130651;28;20021;-68
2023/06/23 04:37:59;;;;;;;17.88;12.82;;;22.10;99.90;;;;;;10135803;28;20532;-66
2023/06/23 04:43:05;;;;;;;20.08;13.45;;;22.00;99.90;;;;;;10117426;28;20023;-65
2023/06/23 04:48:00;;;;;;;18.88;13.55;;;21.90;99.90;;;;;;10127937;28;20394;-67
2023/06/23 04:52:55;;;;;;;22.50;13.63;;;21.80;99.90;;;;;;10121799;28;20024;-67
2023/06/23 04:57:48;;;;;;;21.25;13.02;;;21.80;99.90;;;;;;10134778;28;20037;-66
2023/06/23 05:02:40;;;;;;;21.13;13.55;;;21.80;99.90;;;;;;10126588;28;20024;-66
2023/06/23 05:07:32;;;;;;;21.17;12.55;;;21.80;99.90;;;;;;10122838;28;20379;-65
2023/06/23 05:12:24;;;;;;;20.17;12.55;;;21.80;99.90;;;;;;10133220;28;20582;-66
2023/06/23 05:17:17;;;;;;;20.40;12.32;;;21.90;99.90;;;;;;10134186;28;20441;-68
2023/06/23 05:22:11;;;;;;;27.05;12.90;;;21.80;99.90;;;;;;10108936;28;20025;-65
2023/06/23 05:27:03;;;;;;;20.13;12.48;;;21.80;99.90;;;;;;10133024;28;20048;-64
2023/06/23 05:31:56;;;;;;;16.85;11.15;;;21.80;99.90;;;;;;10135456;28;20528;-65
2023/06/23 05:36:49;;;;;;;18.90;11.90;;;21.80;99.90;;;;;;10112371;28;20495;-65
2023/06/23 05:41:39;;;;;;;18.65;11.63;;;21.80;99.90;;;;;;10143880;28;20031;-66
2023/06/23 05:46:32;;;;;;;20.67;11.60;;;21.80;99.90;;;;;;10144027;28;20394;-67
2023/06/23 05:51:29;;;;;;;15.00;9.43;;;21.80;99.90;;;;;;10108426;28;20029;-64
2023/06/23 05:56:48;;;;;;;15.50;9.57;;;21.80;99.90;;;;;;10135429;28;20046;-66
2023/06/23 06:01:42;;;;;;;15.52;10.27;;;21.90;99.90;;;;;;10143093;28;20074;-67
2023/06/23 06:06:36;;;;;;;13.20;10.23;;;21.80;99.90;;;;;;10137106;28;20601;-65
2023/06/23 06:11:28;;;;;;;15.68;9.65;;;21.70;99.90;;;;;;10148324;28;20450;-67
2023/06/23 06:16:20;;;;;;;17.05;9.10;;;21.80;99.90;;;;;;10149635;28;20044;-66
2023/06/23 06:21:12;;;;;;;16.52;9.23;;;21.90;99.90;;;;;;10141535;28;20016;-64
2023/06/23 06:26:06;;;;;;;15.90;9.98;;;22.10;99.90;;;;;;10142510;28;20051;-66
2023/06/23 06:30:58;;;;;;;17.45;10.57;;;22.10;99.90;;;;;;10142939;28;20056;-65
2023/06/23 06:35:51;;;;;;;15.45;10.70;;;22.20;99.90;;;;;;10125234;28;20624;-61
2023/06/23 06:40:43;;;;;;;18.70;10.45;;;22.20;99.90;;;;;;10135466;28;20393;-64
2023/06/23 06:45:34;;;;;;;14.27;9.50;;;22.10;99.90;;;;;;10127659;28;20029;-62
2023/06/23 06:50:26;;;;;;;17.75;10.15;;;22.10;99.90;;;;;;10125567;28;20402;-63
2023/06/23 06:55:18;;;;;;;14.07;10.32;;;22.10;99.90;;;;;;10128336;28;20055;-63
2023/06/23 07:00:10;;;;;;;18.20;10.57;;;22.30;99.90;;;;;;10129371;28;20496;-63
2023/06/23 07:05:02;;;;;;;16.80;9.00;;;22.50;99.90;;;;;;10126839;28;20033;-63
2023/06/23 07:09:52;;;;;;;13.55;9.02;;;22.60;99.90;;;;;;10137757;28;20029;-64
2023/06/23 07:14:43;;;;;;;13.35;8.38;;;22.80;99.90;;;;;;10141642;28;20041;-65
2023/06/23 07:19:34;;;;;;;14.40;8.68;;;22.80;99.90;;;;;;10140481;28;20025;-63
2023/06/23 07:24:24;;;;;;;16.08;9.15;;;22.80;99.90;;;;;;10133380;28;20052;-62
2023/06/23 07:29:15;;;;;;;13.55;8.57;;;22.50;99.90;;;;;;10140272;28;20089;-61
2023/06/23 07:34:05;;;;;;;15.15;8.43;;;22.80;99.90;;;;;;10128836;28;20032;-65
2023/06/23 07:38:56;;;;;;;16.83;9.82;;;22.70;99.60;;;;;;10139454;28;20468;-65
2023/06/23 07:43:48;;;;;;;12.05;8.77;;;22.50;99.60;;;;;;10139647;28;20074;-65
2023/06/23 07:48:39;;;;;;;13.57;7.78;;;22.60;99.50;;;;;;10139416;28;20540;-64
2023/06/23 07:53:29;;;;;;;13.02;7.75;;;22.70;99.20;;;;;;10138237;28;20052;-66
2023/06/23 07:58:20;;;;;;;15.32;8.77;;;22.70;99.20;;;;;;10128205;28;20045;-65
2023/06/23 08:03:11;;;;;;;11.48;8.00;;;22.60;99.00;;;;;;10134919;28;20444;-64
2023/06/23 08:08:01;;;;;;;11.10;7.82;;;22.70;98.80;;;;;;10137879;28;20553;-63
2023/06/23 08:12:52;;;;;;;13.48;7.35;;;22.90;98.60;;;;;;10138223;28;20095;-65
2023/06/23 08:17:43;;;;;;;11.98;6.95;;;23.00;98.50;;;;;;10131021;28;20041;-64
2023/06/23 08:22:33;;;;;;;11.77;7.05;;;22.90;98.40;;;;;;10119598;28;20576;-63
2023/06/23 08:27:24;;;;;;;11.45;7.72;;;23.00;98.20;;;;;;10137609;28;20044;-62
2023/06/23 08:32:16;;;;;;;12.15;6.68;;;23.10;97.90;;;;;;10134791;28;20032;-63
2023/06/23 08:37:06;;;;;;;11.88;6.32;;;23.00;97.80;;;;;;10129874;28;20039;-62
2023/06/23 08:41:58;;;;;;;10.65;6.05;;;23.20;97.50;;;;;;10135693;28;20513;-61
2023/06/23 08:46:54;;;;;;;9.45;5.40;;;23.50;97.30;;;;;;10130599;28;20025;-61
2023/06/23 08:51:45;;;;;;;11.27;5.80;;;23.30;97.00;;;;;;10131558;28;20060;-62
2023/06/23 08:56:36;;;;;;;9.82;6.13;;;23.40;96.90;;;;;;10133512;28;20055;-64
2023/06/23 09:01:26;;;;;;;20.83;12.50;;;23.30;96.80;;;;;;10135761;28;20033;-63
2023/06/23 09:06:17;;;;;;;34.15;20.35;;;23.50;96.50;;;;;;10136794;28;20115;-64
2023/06/23 09:11:08;;;;;;;8.75;5.38;;;23.70;96.40;;;;;;10137458;28;20553;-64
2023/06/23 09:16:00;;;;;;;8.45;5.30;;;23.80;96.20;;;;;;10117062;28;20052;-65
2023/06/23 09:20:52;;;;;;;7.60;4.93;;;23.90;96.00;;;;;;10126838;28;20017;-67
2023/06/23 09:25:44;;;;;;;8.30;4.75;;;23.80;96.00;;;;;;10131962;28;20055;-67
2023/06/23 09:30:36;;;;;;;7.55;4.50;;;23.90;95.60;;;;;;10184449;28;20470;-63
2023/06/23 09:35:27;;;;;;;9.02;4.35;;;23.80;95.30;;;;;;10180048;28;20035;-65
2023/06/23 09:40:27;;;;;;;8.02;4.05;;;23.80;95.20;;;;;;10172034;28;20111;-63
2023/06/23 09:45:23;;;;;;;6.80;4.68;;;24.20;94.90;;;;;;10155306;28;20028;-63
2023/06/23 09:50:20;;;;;;;5.40;4.00;;;24.40;94.60;;;;;;10173165;28;20031;-67
2023/06/23 09:55:11;;;;;;;6.32;4.10;;;24.30;94.60;;;;;;10153956;28;20475;-63
2023/06/23 10:00:03;;;;;;;5.75;4.32;;;24.30;94.50;;;;;;10157263;28;20123;-67
2023/06/23 10:04:59;;;;;;;6.20;4.15;;;24.20;94.40;;;;;;10176194;28;20024;-63
2023/06/23 10:10:00;;;;;;;6.25;3.25;;;24.30;94.10;;;;;;10167648;28;20020;-66
2023/06/23 10:14:52;;;;;;;5.90;4.25;;;24.60;93.60;;;;;;10165183;28;20028;-65
2023/06/23 10:19:50;;;;;;;7.93;3.90;;;24.60;93.50;;;;;;10189397;28;20510;-64
2023/06/23 10:24:49;;;;;;;4.43;3.17;;;24.70;93.20;;;;;;10170759;28;20073;-64
2023/06/23 10:29:45;;;;;;;6.35;3.65;;;24.60;93.00;;;;;;10187836;28;20059;-61
2023/06/23 10:34:38;;;;;;;6.50;3.45;;;24.70;92.60;;;;;;10178044;28;20040;-65
2023/06/23 10:39:34;;;;;;;6.68;3.75;;;25.00;92.30;;;;;;10182912;28;20044;-63
2023/06/23 10:44:27;;;;;;;4.25;2.70;;;25.10;92.30;;;;;;10164458;28;20024;-62
2023/06/23 10:49:18;;;;;;;4.80;3.08;;;24.80;92.00;;;;;;10174785;28;20032;-63
2023/06/23 10:54:10;;;;;;;6.55;3.50;;;24.90;91.60;;;;;;10191370;28;20055;-66
2023/06/23 10:59:20;;;;;;;5.63;3.17;;;25.20;91.20;;;;;;10192405;28;20036;-65
2023/06/23 11:04:26;;;;;;;6.03;3.40;;;25.50;91.00;;;;;;10190602;28;20028;-63
2023/06/23 11:09:47;;;;;;;5.90;3.42;;;25.90;90.80;;;;;;10172649;28;20020;-65
2023/06/23 11:14:43;;;;;;;4.45;3.30;;;25.60;90.70;;;;;;10174454;28;20032;-65
2023/06/23 11:19:34;;;;;;;7.03;4.40;;;25.30;91.00;;;;;;10185072;28;20024;-66
2023/06/23 11:24:25;;;;;;;6.90;2.70;;;25.40;90.90;;;;;;10186453;28;20028;-67
2023/06/23 11:29:21;;;;;;;4.88;3.25;;;25.50;90.50;;;;;;10184835;28;20509;-67
2023/06/23 11:34:12;;;;;;;24.38;15.18;;;25.70;90.10;;;;;;10164434;28;20039;-64
2023/06/23 11:39:05;;;;;;;6.00;3.92;;;26.10;89.80;;;;;;10179972;28;20402;-64
2023/06/23 11:43:57;;;;;;;4.03;3.03;;;25.80;89.50;;;;;;10184553;28;20042;-64
2023/06/23 11:48:48;;;;;;;3.70;3.13;;;25.90;89.10;;;;;;10176621;28;20025;-65
2023/06/23 11:53:42;;;;;;;4.53;3.60;;;26.20;88.20;;;;;;10170065;28;20493;-65
2023/06/23 11:58:34;;;;;;;5.00;3.57;;;26.20;87.50;;;;;;10179363;28;20111;-64
2023/06/23 12:03:25;;;;;;;4.80;3.10;;;26.20;86.80;;;;;;10181820;28;20364;-64
2023/06/23 12:08:16;;;;;;;5.00;3.00;;;26.70;86.20;;;;;;10183563;28;20501;-64
2023/06/23 12:13:10;;;;;;;3.45;2.30;;;27.20;85.40;;;;;;10173558;28;20020;-64
2023/06/23 12:18:01;;;;;;;3.40;2.58;;;27.60;84.40;;;;;;10155402;28;20032;-64
2023/06/23 12:22:51;;;;;;;5.80;3.25;;;27.90;84.00;;;;;;10181219;28;20031;-63
2023/06/23 12:27:50;;;;;;;8.43;2.92;;;27.80;83.10;;;;;;10185514;28;20700;-60
2023/06/23 12:32:41;;;;;;;4.30;2.65;;;27.90;83.00;;;;;;10162649;28;20089;-61
2023/06/23 12:37:45;;;;;;;3.42;2.60;;;28.20;82.60;;;;;;10169950;28;20097;-62
2023/06/23 12:42:36;;;;;;;5.07;3.03;;;29.20;81.40;;;;;;10154181;28;20028;-60
2023/06/23 12:47:27;;;;;;;3.83;2.97;;;28.20;80.60;;;;;;10161692;28;20041;-67
2023/06/23 12:52:18;;;;;;;5.40;2.55;;;27.70;80.20;;;;;;10170739;28;20028;-63
2023/06/23 12:57:09;;;;;;;4.60;3.13;;;28.90;79.60;;;;;;10153798;28;20211;-64
2023/06/23 13:02:01;;;;;;;4.07;2.65;;;30.20;78.30;;;;;;10179585;28;20610;-62
2023/06/23 13:06:52;;;;;;;4.00;2.50;;;31.10;76.70;;;;;;10180967;28;20043;-60
2023/06/23 13:11:43;;;;;;;2.13;1.92;;;31.90;75.20;;;;;;10178595;28;20020;-63
2023/06/23 13:16:33;;;;;;;4.55;2.53;;;31.30;73.50;;;;;;10175317;28;20483;-59
2023/06/23 13:21:24;;;;;;;3.00;2.33;;;30.10;72.50;;;;;;10173972;28;20065;-64
2023/06/23 13:26:15;;;;;;;4.30;2.83;;;31.70;71.00;;;;;;10186644;28;20195;-64
2023/06/23 13:31:06;;;;;;;2.40;2.13;;;32.30;69.80;;;;;;10131893;28;20105;-64
2023/06/23 13:35:56;;;;;;;3.67;2.53;;;33.30;69.30;;;;;;10125273;28;20470;-64
2023/06/23 13:40:47;;;;;;;3.67;2.63;;;34.10;67.50;;;;;;10124101;28;20047;-61
2023/06/23 13:45:37;;;;;;;3.53;2.57;;;34.70;65.90;;;;;;10136168;28;20025;-62
2023/06/23 13:50:28;;;;;;;3.17;2.60;;;34.50;64.90;;;;;;10135747;28;20035;-62
2023/06/23 13:55:19;;;;;;;3.13;2.70;;;34.10;63.50;;;;;;10130674;28;20048;-63
2023/06/23 14:00:10;;;;;;;4.60;2.53;;;34.50;62.70;;;;;;10135647;28;20037;-64
2023/06/23 14:05:01;;;;;;;2.88;2.30;;;35.10;61.30;;;;;;10142272;28;20032;-64
2023/06/23 14:09:53;;;;;;;3.53;3.22;;;35.60;60.10;;;;;;10101078;28;20036;-64
2023/06/23 14:14:43;;;;;;;2.83;2.58;;;35.40;59.10;;;;;;10136987;28;20426;-64
2023/06/23 14:19:34;;;;;;;2.77;2.50;;;35.60;58.80;;;;;;10139442;28;20036;-63
2023/06/23 14:24:25;;;;;;;13.27;11.87;;;35.70;57.60;;;;;;10135083;28;20039;-63
2023/06/23 14:29:15;;;;;;;3.90;3.30;;;35.80;57.10;;;;;;10171550;28;20127;-62
2023/06/23 14:34:06;;;;;;;4.00;3.08;;;34.10;58.10;;;;;;10180218;28;20051;-64
2023/06/23 14:38:57;;;;;;;3.73;2.80;;;34.10;58.60;;;;;;10181028;28;20042;-62
2023/06/23 14:43:47;;;;;;;4.53;2.80;;;34.40;56.90;;;;;;10184006;28;20466;-60
2023/06/23 14:48:38;;;;;;;3.25;2.30;;;32.10;58.60;;;;;;10183169;28;20024;-62
2023/06/23 14:53:29;;;;;;;4.30;3.90;;;33.40;57.20;;;;;;10188870;28;20027;-61
2023/06/23 14:58:19;;;;;;;5.63;4.80;;;34.80;55.90;;;;;;10172339;28;20051;-63
2023/06/23 15:03:11;;;;;;;5.77;5.27;;;35.00;55.50;;;;;;10189923;28;20024;-63
2023/06/23 15:08:02;;;;;;;2.88;2.45;;;34.80;55.60;;;;;;10189179;28;20066;-62
2023/06/23 15:12:52;;;;;;;4.38;2.55;;;33.50;56.20;;;;;;10164258;28;20075;-62
2023/06/23 15:17:43;;;;;;;3.45;2.58;;;31.20;57.50;;;;;;10176578;28;20288;-62
2023/06/23 15:22:34;;;;;;;3.15;2.78;;;30.10;58.10;;;;;;10185301;28;20032;-61
2023/06/23 15:27:25;;;;;;;2.63;2.33;;;29.60;58.10;;;;;;10179402;28;20513;-63
2023/06/23 15:32:16;;;;;;;3.17;2.25;;;29.20;58.30;;;;;;10121718;28;20021;-65
2023/06/23 15:37:10;;;;;;;3.13;2.03;;;28.90;58.50;;;;;;10117981;28;20418;-62
2023/06/23 15:42:00;;;;;;;4.93;2.10;;;28.80;58.80;;;;;;10137149;28;20042;-62
2023/06/23 15:46:51;;;;;;;2.92;2.17;;;29.10;58.50;;;;;;10131091;28;20546;-65
2023/06/23 15:51:43;;;;;;;4.55;2.80;;;29.20;59.40;;;;;;10139576;28;20505;-63
2023/06/23 15:56:34;;;;;;;5.53;2.10;;;32.30;57.20;;;;;;10138764;28;20117;-65
2023/06/23 16:01:25;;;;;;;3.17;2.40;;;34.90;55.50;;;;;;10122391;28;20031;-62
2023/06/23 16:06:16;;;;;;;3.90;2.65;;;35.10;55.50;;;;;;10139206;28;20116;-64
2023/06/23 16:11:07;;;;;;;3.90;2.53;;;35.90;54.70;;;;;;10138301;28;20085;-64
2023/06/23 16:15:58;;;;;;;3.13;2.80;;;37.00;54.00;;;;;;10137815;28;20037;-65
2023/06/23 16:20:48;;;;;;;3.03;2.35;;;35.60;54.10;;;;;;10118917;28;20032;-63
2023/06/23 16:25:39;;;;;;;2.53;2.05;;;34.60;55.70;;;;;;10137133;28;20378;-63
2023/06/23 16:30:31;;;;;;;2.30;2.10;;;34.10;55.00;;;;;;10134872;28;20049;-64
2023/06/23 16:35:22;;;;;;;2.47;2.22;;;37.60;52.40;;;;;;10130523;28;20530;-65
2023/06/23 16:40:13;;;;;;;6.45;2.90;;;38.40;50.60;;;;;;10115750;28;20051;-64
2023/06/23 16:45:04;;;;;;;2.47;2.15;;;34.20;54.00;;;;;;10119484;28;20231;-64
2023/06/23 16:49:55;;;;;;;2.28;2.03;;;36.20;52.60;;;;;;10126867;28;20355;-64
2023/06/23 16:54:46;;;;;;;2.53;2.15;;;38.80;50.40;;;;;;10127028;28;20102;-64
2023/06/23 16:59:37;;;;;;;2.80;2.40;;;40.20;49.60;;;;;;10122006;28;20081;-64
2023/06/23 17:04:27;;;;;;;51.53;42.05;;;40.60;48.50;;;;;;10136598;28;20634;-63
2023/06/23 17:09:18;;;;;;;3.67;3.08;;;37.70;50.10;;;;;;10126481;28;20099;-63
2023/06/23 17:14:09;;;;;;;4.18;3.03;;;34.60;52.10;;;;;;10136638;28;20039;-64
2023/06/23 17:19:01;;;;;;;3.50;2.67;;;32.60;53.30;;;;;;10133792;28;20143;-64
2023/06/23 17:23:51;;;;;;;2.42;2.13;;;32.40;53.10;;;;;;10117246;28;20502;-64
2023/06/23 17:28:42;;;;;;;2.50;2.20;;;34.40;51.00;;;;;;10135763;28;20127;-64
2023/06/23 17:33:35;;;;;;;2.60;2.08;;;36.00;50.00;;;;;;10112618;28;20025;-65
2023/06/23 17:38:25;;;;;;;4.13;3.13;;;35.70;50.00;;;;;;10137676;28;20111;-66
2023/06/23 17:43:16;;;;;;;3.08;2.58;;;35.80;49.80;;;;;;10143791;28;20470;-65
2023/06/23 17:48:07;;;;;;;2.35;1.55;;;35.50;49.90;;;;;;10137765;28;20036;-64
2023/06/23 17:52:57;;;;;;;2.90;2.13;;;33.30;51.80;;;;;;10116143;28;20360;-64
2023/06/23 17:57:48;;;;;;;3.35;2.08;;;34.00;50.90;;;;;;10132810;28;20032;-64
2023/06/23 18:02:41;;;;;;;2.60;1.90;;;33.70;51.20;;;;;;10142217;28;20508;-64
2023/06/23 18:07:31;;;;;;;;;;;33.40;51.40;;;;;;10143222;28;20604;-64
2023/06/23 18:12:22;;;;;;;4.60;2.60;;;31.90;52.50;;;;;;10142192;28;19919;-65
2023/06/23 18:17:13;;;;;;;3.28;2.50;;;31.00;53.00;;;;;;10135547;28;20040;-63
2023/06/23 18:22:07;;;;;;;3.53;2.00;;;30.50;53.20;;;;;;10142423;28;20033;-63
2023/06/23 18:26:57;;;;;;;2.40;2.08;;;30.20;53.50;;;;;;10135489;28;20074;-65
2023/06/23 18:31:53;;;;;;;2.50;2.00;;;29.90;53.80;;;;;;10141846;28;20055;-65
2023/06/23 18:36:44;;;;;;;3.22;2.40;;;29.40;54.40;;;;;;10134922;28;20028;-65
2023/06/23 18:41:35;;;;;;;3.83;2.40;;;29.40;54.50;;;;;;10109585;28;20029;-65
2023/06/23 18:46:25;;;;;;;2.83;2.35;;;29.40;54.80;;;;;;10119926;28;20040;-66
2023/06/23 18:51:16;;;;;;;5.15;2.88;;;29.40;55.10;;;;;;10133637;28;20259;-62
2023/06/23 18:56:07;;;;;;;3.53;2.28;;;29.30;55.40;;;;;;10127244;28;20048;-63
2023/06/23 19:00:58;;;;;;;5.00;3.00;;;29.30;55.80;;;;;;10126947;28;20115;-62
2023/06/23 19:05:48;;;;;;;3.63;2.50;;;29.10;56.20;;;;;;10134040;28;20048;-64
2023/06/23 19:10:39;;;;;;;4.35;2.13;;;28.90;56.50;;;;;;10122873;28;20102;-63
2023/06/23 19:15:30;;;;;;;3.80;2.72;;;28.80;56.80;;;;;;10112528;28;20040;-60
2023/06/23 19:20:20;;;;;;;3.53;2.20;;;28.80;56.90;;;;;;10114313;28;20029;-62
2023/06/23 19:25:11;;;;;;;5.38;3.95;;;28.70;57.10;;;;;;10106580;28;20044;-62
2023/06/23 19:30:02;;;;;;;5.00;3.40;;;28.50;57.40;;;;;;10121530;28;20388;-64
2023/06/23 19:34:53;;;;;;;7.28;2.67;;;28.40;57.70;;;;;;10117988;28;20504;-65
2023/06/23 19:39:44;;;;;;;4.65;3.42;;;28.30;57.90;;;;;;10124505;28;20495;-67
2023/06/23 19:44:34;;;;;;;4.32;2.72;;;28.20;58.00;;;;;;10120382;28;20143;-67
2023/06/23 19:49:26;;;;;;;4.05;2.53;;;28.20;58.30;;;;;;10113743;28;20116;-63
2023/06/23 19:54:21;;;;;;;4.78;2.53;;;28.10;58.50;;;;;;10111071;28;20044;-61
2023/06/23 19:59:11;;;;;;;3.67;2.20;;;28.10;58.70;;;;;;10114997;28;20041;-60
2023/06/23 20:04:02;;;;;;;4.53;3.70;;;28.00;58.80;;;;;;10120302;28;20029;-62
2023/06/23 20:08:54;;;;;;;4.60;3.22;;;27.90;58.80;;;;;;10126412;28;20128;-60
2023/06/23 20:13:45;;;;;;;131.30;80.18;;;27.90;59.10;;;;;;10118829;28;20020;-63
2023/06/23 20:18:36;;;;;;;77.47;46.92;;;28.00;59.00;;;;;;10129519;28;20409;-61
2023/06/23 20:23:29;;;;;;;17.58;10.23;;;27.90;59.20;;;;;;10124922;28;20751;-61
2023/06/23 20:28:19;;;;;;;8.13;5.63;;;27.80;59.80;;;;;;10125262;28;20429;-60
2023/06/23 20:33:10;;;;;;;7.07;5.03;;;27.60;60.30;;;;;;10129221;28;20029;-62
2023/06/23 20:38:01;;;;;;;8.07;3.85;;;27.50;60.70;;;;;;10111325;28;20118;-59
2023/06/23 20:42:52;;;;;;;4.30;3.08;;;27.50;60.90;;;;;;10125146;28;20035;-59
2023/06/23 20:47:42;;;;;;;5.00;3.40;;;27.40;60.90;;;;;;10130642;28;20519;-57
2023/06/23 20:52:33;;;;;;;4.82;3.28;;;27.30;61.10;;;;;;10130371;28;20020;-61
2023/06/23 20:57:24;;;;;;;4.60;3.47;;;27.30;61.30;;;;;;10130351;28;20044;-59
2023/06/23 21:02:14;;;;;;;6.93;3.63;;;27.30;61.50;;;;;;10131737;28;20035;-57
2023/06/23 21:07:05;;;;;;;5.22;3.03;;;27.30;61.90;;;;;;10137773;28;20124;-60
2023/06/23 21:11:56;;;;;;;7.35;3.40;;;27.20;62.30;;;;;;10135632;28;20063;-60
2023/06/23 21:16:47;;;;;;;40.55;24.10;;;27.20;62.30;;;;;;10133933;28;20070;-59
2023/06/23 21:21:37;;;;;;;32.83;20.92;;;27.30;62.40;;;;;;10132888;28;20021;-60
2023/06/23 21:26:28;;;;;;;9.40;6.63;;;27.20;62.80;;;;;;10131112;28;20055;-60
2023/06/23 21:31:19;;;;;;;7.45;5.03;;;27.10;63.20;;;;;;10135652;28;20417;-62
2023/06/23 21:36:10;;;;;;;6.85;4.53;;;27.10;63.70;;;;;;10122429;28;20083;-62
2023/06/23 21:41:03;;;;;;;6.82;4.88;;;27.10;64.00;;;;;;10119078;28;20021;-61
2023/06/23 21:45:54;;;;;;;11.43;5.13;;;27.00;64.40;;;;;;10136033;28;20020;-62
2023/06/23 21:50:45;;;;;;;6.68;4.00;;;27.10;64.90;;;;;;10129674;28;20554;-62
2023/06/23 21:55:36;;;;;;;7.68;4.28;;;27.00;65.20;;;;;;10129523;28;20037;-60
2023/06/23 22:00:26;;;;;;;7.40;5.28;;;26.90;65.50;;;;;;10133914;28;20031;-62
2023/06/23 22:05:17;;;;;;;6.00;3.92;;;26.80;66.00;;;;;;10115995;28;20032;-62
2023/06/23 22:10:08;;;;;;;4.75;3.78;;;26.70;66.50;;;;;;10126967;28;20482;-61
2023/06/23 22:14:58;;;;;;;5.90;3.83;;;26.60;66.80;;;;;;10127023;28;20028;-61
2023/06/23 22:19:49;;;;;;;5.43;3.22;;;26.50;67.30;;;;;;10130380;28;20036;-61
2023/06/23 22:24:40;;;;;;;4.63;3.25;;;26.30;67.50;;;;;;10135560;28;20032;-61
2023/06/23 22:29:33;;;;;;;5.25;3.00;;;26.10;67.90;;;;;;10136042;28;20056;-60
2023/06/23 22:34:24;;;;;;;6.82;3.85;;;25.80;68.10;;;;;;10135384;28;20368;-61
2023/06/23 22:39:14;;;;;;;5.10;2.78;;;25.80;68.30;;;;;;10139205;28;20124;-63
2023/06/23 22:44:06;;;;;;;5.13;3.72;;;25.70;68.60;;;;;;10124705;28;20020;-61
2023/06/23 22:48:56;;;;;;;6.57;4.03;;;25.60;68.90;;;;;;10135209;28;20036;-61
2023/06/23 22:53:47;;;;;;;7.43;4.25;;;25.50;69.40;;;;;;10129629;28;20486;-63
2023/06/23 22:58:38;;;;;;;4.60;3.67;;;25.50;69.70;;;;;;10124395;28;20044;-61
2023/06/23 23:03:29;;;;;;;5.97;3.97;;;25.50;70.10;;;;;;10139352;28;20040;-60
2023/06/23 23:08:20;;;;;;;5.60;3.97;;;25.30;71.20;;;;;;10141050;28;20043;-61
2023/06/23 23:13:11;;;;;;;8.25;4.07;;;25.30;71.00;;;;;;10140971;28;20028;-61
2023/06/23 23:18:01;;;;;;;6.88;3.03;;;25.20;71.60;;;;;;10136033;28;20064;-61
2023/06/23 23:22:52;;;;;;;4.22;3.70;;;25.00;72.30;;;;;;10136712;28;20117;-61
2023/06/23 23:27:43;;;;;;;6.63;3.10;;;25.00;72.70;;;;;;10141113;28;20048;-61
2023/06/23 23:32:37;;;;;;;5.75;3.30;;;25.10;73.10;;;;;;10125735;28;20025;-62
2023/06/23 23:37:28;;;;;;;6.10;3.22;;;25.00;73.30;;;;;;10140914;28;20060;-62
2023/06/23 23:42:18;;;;;;;4.80;3.20;;;24.90;73.50;;;;;;10136993;28;20391;-62
2023/06/23 23:47:09;;;;;;;5.75;3.17;;;24.80;73.80;;;;;;10138610;28;20052;-61
2023/06/23 23:52:00;;;;;;;4.60;2.70;;;24.60;74.00;;;;;;10134720;28;20219;-63
2023/06/23 23:56:50;;;;;;;6.15;3.50;;;24.60;74.10;;;;;;10139185;28;20056;-62
